createdAt,value
2019-02-28T00:02:53.924Z,6.45
2019-02-28T00:07:57.665Z,6.60
2019-02-28T00:13:01.235Z,6.62
2019-02-28T00:18:05.195Z,6.76
2019-02-28T00:23:08.796Z,6.75
2019-02-28T00:28:12.327Z,6.83
2019-02-28T00:33:16.197Z,6.92
2019-02-28T00:38:19.715Z,6.70
2019-02-28T00:43:25.144Z,6.66
2019-02-28T00:48:28.528Z,6.63
2019-02-28T00:53:32.124Z,6.60
2019-02-28T00:58:35.647Z,6.60
2019-02-28T01:03:39.214Z,6.62
2019-02-28T01:08:42.761Z,6.59
2019-02-28T01:13:46.321Z,6.54
2019-02-28T01:18:49.856Z,6.54
2019-02-28T01:23:53.446Z,6.72
2019-02-28T01:29:01.520Z,6.62
2019-02-28T01:34:02.666Z,6.52
2019-02-28T01:39:06.516Z,6.37
2019-02-28T01:44:10.100Z,6.36
2019-02-28T01:49:13.652Z,6.19
2019-02-28T01:54:17.247Z,6.24
2019-02-28T01:59:21.613Z,6.43
2019-02-28T02:04:25.836Z,6.41
2019-02-28T02:09:29.387Z,6.31
2019-02-28T02:14:32.958Z,6.36
2019-02-28T02:19:36.508Z,6.25
2019-02-28T02:24:40.079Z,6.12
2019-02-28T02:29:43.618Z,6.00
2019-02-28T02:34:47.766Z,5.86
2019-02-28T02:39:51.355Z,5.79
2019-02-28T02:44:54.931Z,5.42
2019-02-28T02:49:58.460Z,5.71
2019-02-28T02:55:02.055Z,6.01
2019-02-28T03:00:13.327Z,6.10
2019-02-28T03:05:14.809Z,6.31
2019-02-28T03:10:19.765Z,6.24
2019-02-28T03:15:27.048Z,6.32
2019-02-28T03:20:28.871Z,6.46
2019-02-28T03:25:32.468Z,6.41
2019-02-28T03:30:36.004Z,6.36
2019-02-28T03:35:43.315Z,6.23
2019-02-28T03:40:44.843Z,6.03
2019-02-28T03:45:48.413Z,5.98
2019-02-28T03:50:55.191Z,5.93
2019-02-28T03:55:57.278Z,5.87
2019-02-28T04:01:00.837Z,5.63
2019-02-28T04:06:05.098Z,5.91
2019-02-28T04:11:08.631Z,5.87
2019-02-28T04:16:12.196Z,5.94
2019-02-28T04:21:15.714Z,6.05
2019-02-28T04:26:19.296Z,6.00
2019-02-28T04:31:22.808Z,6.05
2019-02-28T04:36:26.416Z,6.17
2019-02-28T04:41:32.530Z,6.24
2019-02-28T04:46:35.221Z,6.40
2019-02-28T04:51:40.225Z,6.27
2019-02-28T04:56:45.516Z,6.49
2019-02-28T05:01:49.299Z,6.42
2019-02-28T05:06:55.323Z,6.48
2019-02-28T05:11:58.163Z,6.44
2019-02-28T05:17:01.828Z,6.34
2019-02-28T05:22:05.373Z,6.35
2019-02-28T05:27:08.958Z,6.56
2019-02-28T05:32:12.925Z,6.61
2019-02-28T05:37:16.511Z,6.51
2019-02-28T05:42:23.429Z,6.70
2019-02-28T05:47:26.090Z,6.82
2019-02-28T05:52:30.463Z,7.12
2019-02-28T05:57:34.934Z,7.11
2019-02-28T06:02:38.492Z,7.13
2019-02-28T06:07:42.076Z,7.44
2019-02-28T06:12:45.604Z,8.76
2019-02-28T06:17:49.131Z,10.72
2019-02-28T06:22:52.745Z,8.59
2019-02-28T06:27:56.289Z,11.71
2019-02-28T06:32:59.858Z,12.83
2019-02-28T06:38:06.583Z,13.41
2019-02-28T06:43:08.721Z,14.26
2019-02-28T06:48:12.273Z,14.43
2019-02-28T06:53:15.849Z,15.63
2019-02-28T06:58:19.396Z,15.38
2019-02-28T07:03:23.002Z,15.84
2019-02-28T07:08:28.967Z,16.61
2019-02-28T07:13:31.832Z,16.68
2019-02-28T07:18:35.397Z,17.55
2019-02-28T07:23:38.998Z,18.46
2019-02-28T07:28:42.551Z,17.95
2019-02-28T07:33:46.144Z,18.87
2019-02-28T07:38:49.670Z,18.81
2019-02-28T07:43:53.233Z,18.07
2019-02-28T07:48:56.795Z,18.89
2019-02-28T07:54:01.614Z,18.56
2019-02-28T07:59:06.265Z,14.86
2019-02-28T08:04:09.940Z,14.83
2019-02-28T08:09:22.289Z,18.10
2019-02-28T08:14:25.823Z,19.76
2019-02-28T08:19:29.360Z,19.54
2019-02-28T08:24:35.845Z,19.38
2019-02-28T08:29:38.197Z,20.11
2019-02-28T08:34:41.786Z,20.79
2019-02-28T08:39:45.349Z,20.65
2019-02-28T08:44:48.940Z,21.67
2019-02-28T08:49:52.488Z,21.55
2019-02-28T08:54:56.729Z,20.83
2019-02-28T09:00:00.253Z,21.73
2019-02-28T09:05:04.154Z,22.16
2019-02-28T09:10:12.580Z,20.82
2019-02-28T09:15:16.204Z,21.92
2019-02-28T09:20:19.051Z,15.19
2019-02-28T09:25:22.871Z,15.25
2019-02-28T09:31:56.137Z,15.70
2019-02-28T09:36:59.543Z,15.34
2019-02-28T09:42:03.136Z,15.68
2019-02-28T09:47:07.186Z,15.12
2019-02-28T09:52:10.777Z,15.10
2019-02-28T09:57:15.406Z,14.84
2019-02-28T10:02:19.735Z,15.31
2019-02-28T10:07:26.309Z,15.22
2019-02-28T10:12:28.557Z,15.10
2019-02-28T10:17:32.140Z,15.11
2019-02-28T10:22:35.661Z,15.49
2019-02-28T10:27:39.257Z,15.19
2019-02-28T10:32:43.388Z,15.00
2019-02-28T10:37:48.046Z,15.27
2019-02-28T10:42:51.568Z,15.00
2019-02-28T10:47:55.160Z,15.01
2019-02-28T10:53:04.219Z,14.83
2019-02-28T10:58:04.942Z,14.80
2019-02-28T11:03:08.497Z,15.24
2019-02-28T11:08:16.688Z,15.23
2019-02-28T11:13:21.255Z,15.25
2019-02-28T11:18:24.829Z,15.38
2019-02-28T11:23:28.390Z,15.25
2019-02-28T11:28:31.947Z,15.34
2019-02-28T11:33:36.534Z,15.17
2019-02-28T11:38:40.833Z,15.50
2019-02-28T11:43:44.394Z,15.34
2019-02-28T11:48:48.038Z,15.39
2019-02-28T11:53:51.638Z,15.42
2019-02-28T11:58:55.155Z,15.49
2019-02-28T12:03:58.773Z,15.26
2019-02-28T12:09:02.310Z,15.42
2019-02-28T12:14:06.392Z,15.55
2019-02-28T12:19:12.516Z,15.69
2019-02-28T12:24:15.766Z,15.59
2019-02-28T12:29:19.297Z,15.66
2019-02-28T12:34:22.887Z,15.64
2019-02-28T12:39:26.472Z,15.70
2019-02-28T12:44:30.106Z,15.53
2019-02-28T12:49:33.633Z,15.41
2019-02-28T12:54:37.202Z,15.55
2019-02-28T12:59:41.839Z,15.60
2019-02-28T13:04:46.061Z,15.34
2019-02-28T13:09:51.445Z,15.56
2019-02-28T13:14:54.896Z,15.51
2019-02-28T13:19:58.412Z,15.46
2019-02-28T13:25:02.014Z,15.45
2019-02-28T13:30:14.588Z,15.25
2019-02-28T13:35:31.888Z,15.26
2019-02-28T13:40:35.466Z,15.12
2019-02-28T13:45:39.035Z,15.21
2019-02-28T13:50:42.735Z,15.21
2019-02-28T13:55:46.458Z,15.19
2019-02-28T14:00:50.023Z,15.23
2019-02-28T14:05:53.630Z,15.32
2019-02-28T14:10:57.189Z,15.33
2019-02-28T14:16:01.204Z,15.18
2019-02-28T14:21:04.759Z,15.29
2019-02-28T14:26:11.438Z,15.30
2019-02-28T14:31:13.655Z,15.17
2019-02-28T14:36:17.539Z,15.08
2019-02-28T14:41:21.101Z,14.98
2019-02-28T14:46:24.721Z,14.98
2019-02-28T14:51:28.618Z,14.94
2019-02-28T14:56:33.059Z,14.66
2019-02-28T15:01:36.604Z,14.53
2019-02-28T15:06:40.189Z,14.34
2019-02-28T15:11:47.106Z,14.36
2019-02-28T15:16:49.027Z,14.29
2019-02-28T15:21:52.550Z,14.05
2019-02-28T15:26:56.531Z,14.10
2019-02-28T15:32:00.096Z,14.00
2019-02-28T15:37:03.676Z,13.92
2019-02-28T15:42:08.199Z,13.84
2019-02-28T15:47:12.709Z,13.70
2019-02-28T15:52:16.255Z,13.72
2019-02-28T15:57:19.892Z,13.67
2019-02-28T16:02:23.450Z,13.47
2019-02-28T16:07:32.367Z,13.43
2019-02-28T16:12:32.914Z,13.21
2019-02-28T16:17:37.315Z,13.13
2019-02-28T16:22:40.937Z,13.21
2019-02-28T16:27:44.593Z,13.12
2019-02-28T16:32:49.089Z,12.90
2019-02-28T16:37:53.596Z,12.89
2019-02-28T16:42:57.162Z,12.79
2019-02-28T16:48:03.044Z,12.76
2019-02-28T16:53:06.780Z,12.84
2019-02-28T16:58:10.411Z,12.64
2019-02-28T17:03:15.866Z,12.62
2019-02-28T17:08:19.533Z,12.55
2019-02-28T17:13:31.442Z,12.55
2019-02-28T17:18:36.793Z,12.40
2019-02-28T17:23:40.345Z,12.40
2019-02-28T17:28:49.828Z,12.38
2019-02-28T17:33:53.206Z,12.42
2019-02-28T17:38:56.868Z,12.15
2019-02-28T17:44:26.305Z,12.10
2019-02-28T17:49:33.074Z,11.94
2019-02-28T17:54:40.017Z,11.96
2019-02-28T17:59:58.793Z,12.01
2019-02-28T18:05:33.749Z,11.76
2019-02-28T18:11:08.626Z,11.79
2019-02-28T18:16:21.512Z,11.45
2019-02-28T18:21:46.857Z,11.49
2019-02-28T18:27:11.694Z,11.45
2019-02-28T18:32:14.710Z,11.37
2019-02-28T18:37:20.710Z,11.43
2019-02-28T18:42:23.989Z,11.25
2019-02-28T18:47:27.731Z,11.23
2019-02-28T18:52:31.482Z,11.20
2019-02-28T18:57:35.259Z,11.23
2019-02-28T19:02:38.940Z,11.20
2019-02-28T19:07:42.678Z,11.01
2019-02-28T19:12:46.288Z,11.05
2019-02-28T19:17:50.036Z,10.84
2019-02-28T19:22:53.778Z,10.90
2019-02-28T19:27:57.556Z,10.69
2019-02-28T19:33:01.300Z,10.68
2019-02-28T19:38:05.448Z,10.59
2019-02-28T19:43:09.263Z,10.59
2019-02-28T19:48:13.667Z,10.46
2019-02-28T19:53:19.201Z,10.49
2019-02-28T19:58:23.060Z,10.42
2019-02-28T20:03:26.812Z,10.26
2019-02-28T20:08:30.437Z,10.23
2019-02-28T20:13:35.452Z,10.26
2019-02-28T20:18:39.221Z,10.11
2019-02-28T20:23:42.911Z,10.16
2019-02-28T20:28:46.605Z,9.91
2019-02-28T20:33:50.215Z,9.91
2019-02-28T20:38:53.915Z,9.88
2019-02-28T20:43:58.988Z,9.88
2019-02-28T20:49:24.524Z,10.10
2019-02-28T20:54:28.587Z,10.18
2019-02-28T20:59:32.161Z,10.17
2019-02-28T21:04:36.377Z,10.16
2019-02-28T21:09:44.996Z,10.49
2019-02-28T21:14:45.388Z,10.06
2019-02-28T21:19:49.025Z,9.49
2019-02-28T21:24:52.685Z,9.79
2019-02-28T21:29:56.234Z,9.51
2019-02-28T21:34:59.897Z,9.59
2019-02-28T21:40:04.255Z,9.84
2019-02-28T21:45:11.008Z,9.74
2019-02-28T21:50:16.352Z,9.56
2019-02-28T21:55:19.986Z,9.13
2019-02-28T22:00:25.973Z,9.06
2019-02-28T22:05:29.670Z,8.96
2019-02-28T22:10:33.344Z,9.21
2019-02-28T22:15:36.966Z,9.51
2019-02-28T22:20:40.540Z,9.30
2019-02-28T22:25:44.223Z,9.26
2019-02-28T22:30:49.353Z,9.04
2019-02-28T22:35:54.575Z,9.35
2019-02-28T22:40:58.203Z,9.24
2019-02-28T22:46:01.850Z,9.23
2019-02-28T22:51:05.444Z,9.05
2019-02-28T22:56:09.053Z,9.22
2019-02-28T23:01:15.528Z,8.91
2019-02-28T23:06:19.176Z,8.95
2019-02-28T23:11:22.804Z,8.52
2019-02-28T23:16:26.417Z,8.88
2019-02-28T23:21:30.013Z,9.01
2019-02-28T23:26:36.690Z,8.86
2019-02-28T23:31:55.572Z,8.94
2019-02-28T23:36:59.214Z,8.76
2019-02-28T23:42:02.905Z,8.60
2019-02-28T23:47:06.632Z,8.90
2019-02-28T23:52:10.234Z,8.88
2019-02-28T23:57:13.857Z,8.65
